Time;durP1;ratioP1;P1;durP2;ratioP2;P2;SDS_P1;SDS_P2;PMS_P1;PMS_P2;Temp;Humidity;BMP_temperature;BMP_pressure;BME280_temperature;BME280_humidity;BME280_pressure;Samples;Min_cycle;Max_cycle;Signal;HPM_P1;HPM_P2
2023/12/25 00:02:03;;;;;;;5.38;1.10;;;22.90;85.90;;;;;;4996092;28;20097;-83
2023/12/25 00:04:31;;;;;;;3.95;1.15;;;22.90;85.80;;;;;;5013784;28;20022;-82
2023/12/25 00:06:58;;;;;;;7.20;1.70;;;23.00;86.00;;;;;;5026171;28;20050;-82
2023/12/25 00:09:27;;;;;;;5.80;1.20;;;23.00;86.20;;;;;;5018474;28;20064;-79
2023/12/25 00:11:54;;;;;;;4.30;1.20;;;23.00;86.00;;;;;;5009632;28;20036;-84
2023/12/25 00:14:21;;;;;;;3.22;1.15;;;23.00;86.00;;;;;;5019170;28;20544;-78
2023/12/25 00:16:49;;;;;;;5.75;1.52;;;22.90;85.50;;;;;;5013861;28;20440;-76
2023/12/25 00:19:16;;;;;;;3.70;1.13;;;22.90;85.70;;;;;;5017227;28;20025;-74
2023/12/25 00:21:43;;;;;;;3.97;1.30;;;22.80;85.00;;;;;;4999187;28;20042;-75
2023/12/25 00:24:11;;;;;;;4.05;1.30;;;22.80;84.90;;;;;;4997281;28;20382;-74
2023/12/25 00:26:40;;;;;;;4.47;1.20;;;22.80;84.30;;;;;;5017359;28;20192;-75
2023/12/25 00:29:09;;;;;;;4.10;1.15;;;22.80;84.20;;;;;;4996498;28;20053;-74
2023/12/25 00:31:36;;;;;;;4.20;1.20;;;22.90;84.20;;;;;;5026535;28;20021;-74
2023/12/25 00:34:03;;;;;;;3.78;1.15;;;23.00;84.20;;;;;;5012823;28;20492;-74
2023/12/25 00:36:31;;;;;;;3.03;1.20;;;23.00;83.50;;;;;;5015166;28;20045;-74
2023/12/25 00:38:58;;;;;;;4.72;1.45;;;23.00;83.80;;;;;;5013019;28;20026;-74
2023/12/25 00:41:30;;;;;;;3.83;1.20;;;23.10;84.00;;;;;;5004362;28;20041;-75
2023/12/25 00:43:58;;;;;;;4.88;1.15;;;23.00;82.80;;;;;;5010185;28;20030;-76
2023/12/25 00:46:25;;;;;;;2.35;1.00;;;23.20;82.90;;;;;;5002730;28;20029;-74
2023/12/25 00:48:53;;;;;;;1.85;0.90;;;23.20;81.00;;;;;;5012418;28;20105;-74
2023/12/25 00:51:20;;;;;;;1.20;0.90;;;23.20;79.70;;;;;;5007866;28;20407;-75
2023/12/25 00:53:48;;;;;;;2.20;0.90;;;23.30;79.60;;;;;;5015394;28;20029;-75
2023/12/25 00:56:15;;;;;;;3.25;1.00;;;23.30;78.10;;;;;;5017117;28;20028;-75
2023/12/25 00:58:44;;;;;;;3.00;1.00;;;23.40;78.60;;;;;;5009479;28;20150;-74
2023/12/25 01:01:11;;;;;;;2.75;1.30;;;23.40;77.30;;;;;;5013393;28;20041;-75
2023/12/25 01:03:38;;;;;;;2.63;1.30;;;23.50;78.10;;;;;;5018902;28;20473;-76
2023/12/25 01:06:06;;;;;;;3.50;1.30;;;23.60;78.60;;;;;;5026485;28;20045;-79
2023/12/25 01:08:33;;;;;;;3.28;1.20;;;23.70;77.20;;;;;;5008438;28;20087;-75
2023/12/25 01:11:05;;;;;;;1.77;1.30;;;23.80;74.70;;;;;;5013261;28;20542;-76
2023/12/25 01:13:32;;;;;;;3.38;1.70;;;23.90;75.60;;;;;;5023293;28;20380;-74
2023/12/25 01:16:00;;;;;;;2.17;1.65;;;24.00;73.60;;;;;;5015451;28;20026;-75
2023/12/25 01:18:27;;;;;;;3.53;1.75;;;24.10;74.00;;;;;;5014028;28;20069;-74
2023/12/25 01:20:54;;;;;;;2.38;1.42;;;24.20;74.10;;;;;;5012399;28;20048;-75
2023/12/25 01:23:22;;;;;;;3.47;1.38;;;24.30;73.50;;;;;;5026713;28;20105;-84
2023/12/25 01:25:49;;;;;;;3.85;1.55;;;24.30;73.40;;;;;;5004841;28;20381;-79
2023/12/25 01:28:16;;;;;;;2.00;1.10;;;24.30;72.20;;;;;;4994401;28;20031;-75
2023/12/25 01:30:44;;;;;;;3.92;1.60;;;24.30;71.10;;;;;;5011952;28;20128;-83
2023/12/25 01:33:14;;;;;;;1.90;1.63;;;24.30;71.20;;;;;;5010425;28;20076;-75
2023/12/25 01:35:41;;;;;;;2.47;1.20;;;24.40;70.10;;;;;;5013392;28;22078;-79
2023/12/25 01:38:08;;;;;;;4.20;1.33;;;24.50;69.30;;;;;;5031088;28;20870;-75
2023/12/25 01:40:38;;;;;;;3.45;1.33;;;24.50;70.30;;;;;;5014119;28;20045;-75
2023/12/25 01:43:06;;;;;;;2.13;1.10;;;24.50;69.60;;;;;;5021898;28;20041;-76
2023/12/25 01:45:36;;;;;;;2.88;1.55;;;24.50;68.70;;;;;;5004486;28;20026;-76
2023/12/25 01:48:04;;;;;;;2.10;1.20;;;24.50;70.30;;;;;;4999279;28;20029;-78
2023/12/25 01:50:32;;;;;;;4.45;1.85;;;24.50;70.40;;;;;;5014843;28;20075;-76
2023/12/25 01:53:00;;;;;;;2.45;1.40;;;24.50;70.90;;;;;;5013811;28;20022;-75
2023/12/25 01:55:27;;;;;;;3.80;1.60;;;24.60;70.30;;;;;;5019564;28;20037;-75
2023/12/25 01:57:55;;;;;;;3.58;1.50;;;24.60;69.30;;;;;;5003658;28;20067;-78
2023/12/25 02:00:22;;;;;;;4.18;1.63;;;24.70;70.70;;;;;;5008788;28;20109;-78
2023/12/25 02:02:50;;;;;;;2.70;1.90;;;24.80;71.20;;;;;;5005200;28;20026;-79
2023/12/25 02:05:17;;;;;;;2.08;1.50;;;24.90;72.10;;;;;;5002667;28;20382;-78
2023/12/25 02:07:46;;;;;;;2.78;1.52;;;24.90;70.60;;;;;;5004231;28;20038;-84
2023/12/25 02:10:27;;;;;;;3.17;1.42;;;25.00;70.40;;;;;;5014025;28;20018;-83
2023/12/25 02:12:54;;;;;;;3.53;1.60;;;25.10;71.40;;;;;;5008129;28;20149;-78
2023/12/25 02:15:22;;;;;;;3.22;1.50;;;25.20;72.20;;;;;;5016552;28;20033;-77
2023/12/25 02:17:51;;;;;;;2.88;1.42;;;25.20;71.30;;;;;;5006191;28;21718;-78
2023/12/25 02:20:20;;;;;;;2.30;1.30;;;25.30;71.20;;;;;;5003191;28;20018;-77
2023/12/25 02:22:48;;;;;;;2.58;1.30;;;25.30;70.00;;;;;;5011222;28;20091;-88
2023/12/25 02:25:28;;;;;;;2.83;1.10;;;25.40;70.70;;;;;;5012176;28;20389;-87
2023/12/25 02:27:55;;;;;;;2.67;1.35;;;25.40;69.20;;;;;;5015579;28;20072;-86
2023/12/25 02:30:23;;;;;;;1.30;0.82;;;25.50;69.40;;;;;;5019578;28;20117;-80
2023/12/25 02:32:50;;;;;;;1.67;0.93;;;25.40;68.90;;;;;;5011869;28;20022;-79
2023/12/25 02:35:17;;;;;;;2.05;1.00;;;25.50;70.10;;;;;;5008960;28;20048;-77
2023/12/25 02:37:48;;;;;;;2.83;1.20;;;25.50;69.90;;;;;;5014322;28;20052;-82
2023/12/25 02:40:15;;;;;;;4.05;1.10;;;25.50;69.90;;;;;;5005779;28;20054;-91
2023/12/25 02:42:43;;;;;;;5.82;1.30;;;25.60;70.80;;;;;;5009210;28;20389;-78
2023/12/25 02:45:10;;;;;;;2.17;1.00;;;25.60;70.80;;;;;;5010342;28;20053;-77
2023/12/25 02:47:38;;;;;;;3.13;0.90;;;25.50;70.40;;;;;;5022534;28;20033;-77
2023/12/25 02:50:05;;;;;;;1.20;0.93;;;25.60;70.50;;;;;;5011769;28;20018;-77
2023/12/25 02:52:33;;;;;;;2.70;0.90;;;25.60;71.60;;;;;;5018758;28;20025;-77
2023/12/25 02:55:00;;;;;;;4.43;0.85;;;25.60;71.80;;;;;;5016963;28;20033;-77
2023/12/25 02:57:28;;;;;;;3.72;0.88;;;25.60;71.70;;;;;;5015014;28;20431;-82
2023/12/25 02:59:55;;;;;;;1.30;0.80;;;25.50;72.20;;;;;;5006361;28;20034;-77
2023/12/25 03:02:23;;;;;;;2.40;0.93;;;25.60;72.30;;;;;;5009100;28;20049;-77
2023/12/25 03:04:50;;;;;;;2.45;0.93;;;25.50;72.60;;;;;;5018215;28;20469;-87
2023/12/25 03:07:18;;;;;;;2.28;1.05;;;25.50;72.00;;;;;;5013642;28;20570;-85
2023/12/25 03:09:45;;;;;;;4.75;1.20;;;25.60;72.40;;;;;;5001238;28;20033;-82
2023/12/25 03:12:12;;;;;;;2.65;1.35;;;25.70;72.50;;;;;;5026463;28;20034;-81
2023/12/25 03:14:43;;;;;;;5.40;1.15;;;25.70;73.20;;;;;;5019834;28;20106;-81
2023/12/25 03:17:11;;;;;;;2.78;1.40;;;25.70;73.40;;;;;;4995923;28;20026;-79
2023/12/25 03:19:38;;;;;;;2.15;0.93;;;25.70;72.40;;;;;;5002333;28;20018;-79
2023/12/25 03:22:05;;;;;;;2.88;1.10;;;25.70;72.60;;;;;;5018188;28;20026;-79
2023/12/25 03:24:33;;;;;;;3.20;1.23;;;25.70;72.50;;;;;;5010493;28;20037;-78
2023/12/25 03:27:02;;;;;;;3.17;1.00;;;25.70;73.00;;;;;;5015998;28;20045;-78
2023/12/25 03:29:29;;;;;;;4.45;2.10;;;25.60;73.20;;;;;;5015926;28;20097;-76
2023/12/25 03:31:57;;;;;;;4.50;1.30;;;25.50;73.50;;;;;;5015317;28;20381;-77
2023/12/25 03:34:24;;;;;;;4.47;1.17;;;25.60;73.90;;;;;;5015121;28;20077;-78
2023/12/25 03:36:51;;;;;;;2.88;1.13;;;25.60;73.50;;;;;;5013708;28;20030;-78
2023/12/25 03:39:19;;;;;;;6.78;1.48;;;25.50;74.00;;;;;;5016010;28;20029;-77
2023/12/25 03:41:46;;;;;;;6.05;1.33;;;25.60;74.30;;;;;;5010866;28;20030;-77
2023/12/25 03:44:13;;;;;;;6.35;1.25;;;25.60;74.40;;;;;;5001194;28;20030;-78
2023/12/25 03:46:41;;;;;;;5.47;1.30;;;25.60;74.30;;;;;;5000765;28;20035;-76
2023/12/25 03:49:08;;;;;;;5.43;1.33;;;25.60;74.70;;;;;;5021521;28;20481;-77
2023/12/25 03:51:36;;;;;;;4.32;1.00;;;25.70;74.80;;;;;;5019823;28;20358;-77
2023/12/25 03:54:03;;;;;;;4.38;1.83;;;25.70;75.60;;;;;;5013459;28;20532;-80
2023/12/25 03:56:34;;;;;;;4.20;1.30;;;25.70;75.20;;;;;;5005125;28;20042;-82
2023/12/25 03:59:02;;;;;;;6.97;1.42;;;25.80;75.40;;;;;;5013802;28;20073;-76
2023/12/25 04:01:30;;;;;;;7.15;1.50;;;25.70;75.00;;;;;;5016599;28;20068;-76
2023/12/25 04:03:57;;;;;;;7.78;1.98;;;25.70;75.30;;;;;;5006078;28;20131;-76
2023/12/25 04:06:25;;;;;;;5.55;2.40;;;25.70;75.40;;;;;;5010698;28;20050;-76
2023/12/25 04:08:53;;;;;;;3.55;1.08;;;25.70;75.10;;;;;;5001125;28;20105;-78
2023/12/25 04:11:24;;;;;;;5.78;1.50;;;25.70;75.40;;;;;;5009274;28;20038;-80
2023/12/25 04:13:54;;;;;;;5.78;3.28;;;25.70;75.60;;;;;;5006287;28;20085;-78
2023/12/25 04:16:23;;;;;;;6.13;1.40;;;25.80;76.10;;;;;;5013872;28;20022;-79
2023/12/25 04:18:55;;;;;;;12.38;6.05;;;25.70;75.40;;;;;;5018861;28;20030;-77
2023/12/25 04:21:32;;;;;;;10.80;3.80;;;25.80;75.30;;;;;;5003956;28;20065;-76
2023/12/25 04:24:00;;;;;;;6.60;1.98;;;25.80;75.90;;;;;;5008384;28;20029;-84
2023/12/25 04:26:27;;;;;;;9.65;2.35;;;25.80;75.80;;;;;;5004144;28;20443;-76
2023/12/25 04:28:56;;;;;;;6.55;1.60;;;25.80;75.80;;;;;;5012895;28;20026;-77
2023/12/25 04:31:23;;;;;;;6.32;1.20;;;25.90;76.50;;;;;;5021912;28;20021;-80
2023/12/25 04:33:50;;;;;;;2.75;1.17;;;25.80;75.70;;;;;;5022379;28;20456;-76
2023/12/25 04:36:18;;;;;;;6.88;1.48;;;25.80;75.10;;;;;;5013553;28;20030;-78
2023/12/25 04:38:45;;;;;;;3.75;1.20;;;25.70;75.80;;;;;;4997270;28;20022;-77
2023/12/25 04:41:13;;;;;;;5.63;1.30;;;25.70;76.00;;;;;;5003311;28;20035;-79
2023/12/25 04:43:40;;;;;;;4.20;1.20;;;25.70;76.00;;;;;;4994824;28;20537;-77
2023/12/25 04:46:08;;;;;;;3.15;1.05;;;25.60;76.40;;;;;;4999398;28;20384;-77
2023/12/25 04:48:36;;;;;;;5.57;1.00;;;25.60;76.20;;;;;;5011717;28;20029;-86
2023/12/25 04:51:03;;;;;;;8.40;1.27;;;25.50;76.50;;;;;;5013976;28;20036;-77
2023/12/25 04:53:36;;;;;;;3.80;1.45;;;25.40;76.80;;;;;;5012664;28;20033;-81
2023/12/25 04:56:04;;;;;;;3.70;1.10;;;25.40;76.80;;;;;;5010049;28;20026;-85
2023/12/25 04:58:31;;;;;;;4.28;1.27;;;25.30;76.40;;;;;;5013666;28;20473;-78
2023/12/25 05:00:59;;;;;;;3.80;1.27;;;25.30;76.50;;;;;;5023384;28;20053;-86
2023/12/25 05:03:26;;;;;;;3.08;1.05;;;25.30;76.60;;;;;;5024853;28;20030;-83
2023/12/25 05:05:53;;;;;;;4.57;1.20;;;25.20;76.60;;;;;;5014506;28;20041;-80
2023/12/25 05:08:24;;;;;;;4.07;0.98;;;25.20;77.10;;;;;;5008628;28;20038;-78
2023/12/25 05:10:51;;;;;;;4.20;1.33;;;25.20;77.00;;;;;;5010710;28;20038;-84
2023/12/25 05:13:19;;;;;;;4.07;1.00;;;25.20;76.90;;;;;;4994284;28;20524;-81
2023/12/25 05:15:46;;;;;;;3.53;1.00;;;25.20;76.90;;;;;;4995869;28;20022;-88
2023/12/25 05:18:13;;;;;;;3.30;1.20;;;25.20;77.20;;;;;;5009358;28;20045;-81
2023/12/25 05:20:41;;;;;;;7.32;1.67;;;25.20;77.70;;;;;;5011187;28;20497;-76
2023/12/25 05:23:08;;;;;;;4.82;1.40;;;25.20;77.50;;;;;;5009467;28;20867;-77
2023/12/25 05:25:36;;;;;;;4.47;1.10;;;25.20;77.80;;;;;;5002666;28;20474;-77
2023/12/25 05:28:03;;;;;;;9.32;1.65;;;25.10;77.50;;;;;;5009068;28;20560;-77
2023/12/25 05:30:31;;;;;;;8.70;1.30;;;25.10;78.20;;;;;;4993262;28;20437;-82
2023/12/25 05:32:59;;;;;;;5.25;1.23;;;25.10;78.30;;;;;;5009584;28;20025;-77
2023/12/25 05:35:26;;;;;;;5.03;1.02;;;25.00;78.10;;;;;;5024084;28;20109;-79
2023/12/25 05:37:55;;;;;;;5.22;1.10;;;25.10;78.20;;;;;;5022366;28;20480;-77
2023/12/25 05:40:23;;;;;;;7.63;1.52;;;25.00;78.30;;;;;;5003320;28;20109;-76
2023/12/25 05:42:50;;;;;;;5.00;1.20;;;25.00;78.40;;;;;;5012109;28;20042;-83
2023/12/25 05:45:19;;;;;;;5.25;1.02;;;25.00;78.30;;;;;;5004384;28;20100;-82
2023/12/25 05:47:46;;;;;;;3.95;1.20;;;25.00;78.20;;;;;;5003490;28;20035;-82
2023/12/25 05:50:14;;;;;;;3.97;1.20;;;25.00;77.90;;;;;;5014396;28;20022;-78
2023/12/25 05:52:41;;;;;;;2.92;1.30;;;25.00;78.00;;;;;;5010469;28;20469;-81
2023/12/25 05:55:09;;;;;;;4.68;1.30;;;24.90;78.10;;;;;;5012493;28;20052;-83
2023/12/25 05:57:36;;;;;;;6.13;1.40;;;24.90;78.20;;;;;;5008829;28;20116;-82
2023/12/25 06:00:04;;;;;;;3.22;1.10;;;24.80;78.60;;;;;;5014566;28;20054;-81
2023/12/25 06:02:32;;;;;;;5.28;1.17;;;24.80;78.80;;;;;;5006223;28;20042;-79
2023/12/25 06:04:59;;;;;;;3.47;1.15;;;24.80;78.60;;;;;;5005133;28;20024;-78
2023/12/25 06:07:26;;;;;;;5.10;1.30;;;24.80;78.90;;;;;;5006885;28;20042;-78
2023/12/25 06:09:54;;;;;;;4.53;1.40;;;24.80;78.90;;;;;;5009188;28;20092;-78
2023/12/25 06:12:21;;;;;;;4.05;1.25;;;24.80;79.10;;;;;;5011888;28;20033;-78
2023/12/25 06:14:48;;;;;;;4.68;1.40;;;24.80;79.10;;;;;;5008701;28;20116;-79
2023/12/25 06:17:16;;;;;;;4.30;1.77;;;24.80;79.20;;;;;;5008967;28;20388;-78
2023/12/25 06:19:46;;;;;;;2.60;1.30;;;24.80;79.40;;;;;;5010201;28;20045;-77
2023/12/25 06:22:14;;;;;;;8.60;1.50;;;24.70;79.50;;;;;;5015132;28;20112;-79
2023/12/25 06:24:41;;;;;;;2.92;1.15;;;24.70;79.50;;;;;;5006524;28;20530;-83
2023/12/25 06:27:08;;;;;;;3.85;1.00;;;24.70;79.60;;;;;;5000658;28;20131;-77
2023/12/25 06:29:36;;;;;;;6.40;1.50;;;24.60;79.50;;;;;;5011886;28;20032;-77
2023/12/25 06:32:04;;;;;;;2.80;1.23;;;24.60;79.70;;;;;;5002061;28;20466;-77
2023/12/25 06:34:31;;;;;;;3.10;1.02;;;24.60;79.60;;;;;;5010721;28;20112;-77
2023/12/25 06:36:58;;;;;;;6.43;1.90;;;24.60;79.70;;;;;;4998486;28;20511;-77
2023/12/25 06:39:26;;;;;;;4.43;1.45;;;24.60;79.90;;;;;;4996757;28;20068;-77
2023/12/25 06:41:53;;;;;;;3.50;1.17;;;24.50;79.90;;;;;;5004533;28;20101;-78
2023/12/25 06:44:20;;;;;;;5.50;1.40;;;24.50;80.00;;;;;;5002264;28;20026;-76
2023/12/25 06:46:48;;;;;;;3.92;1.10;;;24.50;80.20;;;;;;5021691;28;20432;-78
2023/12/25 06:49:15;;;;;;;6.68;1.20;;;24.50;80.20;;;;;;5014342;28;20025;-77
2023/12/25 06:51:45;;;;;;;6.22;1.40;;;24.40;80.40;;;;;;5006880;28;20028;-77
2023/12/25 06:54:13;;;;;;;5.10;1.33;;;24.40;80.60;;;;;;5011446;28;20026;-76
2023/12/25 06:56:41;;;;;;;2.88;1.20;;;24.40;80.80;;;;;;5006813;28;20032;-80
2023/12/25 06:59:08;;;;;;;6.05;1.90;;;24.40;81.30;;;;;;5011729;28;20030;-79
2023/12/25 07:01:35;;;;;;;6.25;1.60;;;24.40;81.40;;;;;;5016572;28;20057;-77
2023/12/25 07:04:03;;;;;;;7.28;1.73;;;24.30;81.20;;;;;;5021430;28;20063;-77
2023/12/25 07:06:31;;;;;;;6.03;1.30;;;24.30;81.40;;;;;;5015497;28;20054;-79
2023/12/25 07:08:59;;;;;;;4.93;1.42;;;24.40;81.60;;;;;;5012623;28;20387;-76
2023/12/25 07:11:27;;;;;;;1.90;1.00;;;24.40;81.50;;;;;;5014178;28;20030;-77
2023/12/25 07:13:59;;;;;;;4.47;1.40;;;24.30;81.40;;;;;;5014555;28;20025;-77
2023/12/25 07:16:26;;;;;;;2.70;1.30;;;24.30;81.60;;;;;;5013513;28;20398;-77
2023/12/25 07:19:07;;;;;;;4.93;1.38;;;24.20;81.80;;;;;;5005923;28;20034;-83
2023/12/25 07:21:35;;;;;;;5.32;1.27;;;24.20;81.80;;;;;;5011797;28;20080;-82
2023/12/25 07:24:04;;;;;;;4.95;1.30;;;24.20;82.10;;;;;;5011646;28;20044;-77
2023/12/25 07:26:31;;;;;;;5.15;1.20;;;24.20;82.30;;;;;;5006121;28;20029;-78
2023/12/25 07:28:58;;;;;;;3.72;1.30;;;24.10;82.60;;;;;;5009580;28;20084;-76
2023/12/25 07:31:26;;;;;;;6.28;1.20;;;24.00;82.90;;;;;;5003328;28;20026;-77
2023/12/25 07:33:54;;;;;;;5.20;1.35;;;24.00;83.10;;;;;;5014849;28;20029;-77
2023/12/25 07:36:22;;;;;;;7.28;1.50;;;24.00;83.60;;;;;;5014002;28;20040;-76
2023/12/25 07:38:49;;;;;;;4.68;1.27;;;24.00;84.00;;;;;;5023163;28;20026;-77
2023/12/25 07:41:17;;;;;;;3.40;1.23;;;23.90;84.00;;;;;;5011907;28;20033;-77
2023/12/25 07:43:44;;;;;;;5.75;1.35;;;23.80;84.00;;;;;;5009617;28;20424;-81
2023/12/25 07:46:12;;;;;;;8.68;1.40;;;23.80;84.10;;;;;;5013079;28;20022;-76
2023/12/25 07:48:41;;;;;;;6.50;1.60;;;23.80;84.30;;;;;;5016582;28;20033;-76
2023/12/25 07:51:08;;;;;;;6.00;1.90;;;23.80;84.40;;;;;;5008017;28;20026;-77
2023/12/25 07:53:35;;;;;;;5.47;1.50;;;23.80;84.70;;;;;;5014929;28;20503;-78
2023/12/25 07:56:03;;;;;;;4.80;1.50;;;23.80;85.00;;;;;;5012930;28;20037;-89
2023/12/25 07:58:30;;;;;;;4.40;1.45;;;23.80;85.10;;;;;;5008993;28;20053;-80
2023/12/25 08:00:58;;;;;;;8.43;1.58;;;23.80;85.00;;;;;;5012639;28;20022;-74
2023/12/25 08:03:25;;;;;;;4.70;1.58;;;23.80;85.10;;;;;;5020979;28;20046;-80
2023/12/25 08:05:52;;;;;;;5.13;1.38;;;23.80;85.10;;;;;;5016060;28;20038;-76
2023/12/25 08:08:20;;;;;;;5.13;1.77;;;23.80;85.20;;;;;;5011978;28;20124;-76
2023/12/25 08:10:47;;;;;;;3.05;1.30;;;23.80;85.10;;;;;;5014056;28;20366;-76
2023/12/25 08:13:18;;;;;;;5.55;1.67;;;23.80;85.40;;;;;;5009164;28;20112;-76
2023/12/25 08:15:45;;;;;;;7.70;1.40;;;23.80;85.40;;;;;;5007797;28;20037;-76
2023/12/25 08:18:13;;;;;;;4.82;1.38;;;23.70;85.30;;;;;;5013364;28;20366;-76
2023/12/25 08:20:41;;;;;;;6.15;1.55;;;23.80;85.30;;;;;;5017768;28;20698;-76
2023/12/25 08:23:08;;;;;;;11.90;1.70;;;23.80;85.50;;;;;;4994878;28;20517;-76
2023/12/25 08:25:36;;;;;;;7.95;1.42;;;23.80;85.50;;;;;;5004281;28;20088;-75
2023/12/25 08:28:03;;;;;;;5.57;1.40;;;23.80;85.40;;;;;;5013780;28;20033;-75
2023/12/25 08:30:30;;;;;;;6.95;1.50;;;23.80;85.70;;;;;;5016480;28;20407;-76
2023/12/25 08:32:58;;;;;;;5.50;1.40;;;23.80;85.70;;;;;;5012525;28;20028;-78
2023/12/25 08:35:25;;;;;;;12.68;1.83;;;23.70;85.70;;;;;;5010852;28;20029;-78
2023/12/25 08:37:53;;;;;;;8.90;1.63;;;23.80;85.90;;;;;;5014698;28;20480;-81
2023/12/25 08:40:20;;;;;;;3.92;1.38;;;23.70;85.90;;;;;;5012784;28;20104;-77
2023/12/25 08:42:51;;;;;;;3.13;1.20;;;23.70;86.10;;;;;;5011757;28;20440;-76
2023/12/25 08:45:19;;;;;;;5.10;1.58;;;23.70;86.10;;;;;;5023883;28;20109;-76
2023/12/25 08:47:51;;;;;;;4.55;1.40;;;23.70;86.20;;;;;;5018476;28;20555;-75
2023/12/25 08:50:19;;;;;;;7.25;1.55;;;23.70;86.40;;;;;;5014525;28;20072;-77
2023/12/25 08:52:47;;;;;;;4.20;1.27;;;23.70;86.40;;;;;;5013148;28;20119;-79
2023/12/25 08:55:14;;;;;;;5.70;1.27;;;23.70;86.40;;;;;;5014515;28;20112;-79
2023/12/25 08:57:42;;;;;;;3.55;1.13;;;23.70;86.20;;;;;;5014581;28;20049;-79
2023/12/25 09:00:10;;;;;;;6.78;1.50;;;23.70;86.30;;;;;;5008937;28;20026;-77
2023/12/25 09:02:38;;;;;;;2.85;1.27;;;23.70;86.30;;;;;;5005348;28;20037;-76
2023/12/25 09:05:05;;;;;;;6.10;1.52;;;23.60;86.20;;;;;;5004216;28;20080;-76
2023/12/25 09:07:33;;;;;;;7.07;1.20;;;23.70;86.40;;;;;;5003647;28;20038;-78
2023/12/25 09:10:01;;;;;;;6.30;1.40;;;23.60;86.20;;;;;;5011232;28;20057;-84
2023/12/25 09:12:28;;;;;;;6.35;1.40;;;23.60;86.20;;;;;;5008408;28;20025;-75
2023/12/25 09:14:55;;;;;;;8.23;1.90;;;23.60;86.40;;;;;;5010909;28;20145;-77
2023/12/25 09:17:23;;;;;;;5.47;1.65;;;23.60;86.60;;;;;;5009340;28;20030;-76
2023/12/25 09:19:50;;;;;;;7.68;1.23;;;23.60;86.70;;;;;;5003897;28;20366;-80
2023/12/25 09:22:20;;;;;;;3.65;1.30;;;23.50;86.60;;;;;;5015194;28;20919;-84
2023/12/25 09:24:48;;;;;;;11.02;1.90;;;23.60;86.80;;;;;;5014081;28;20022;-76
2023/12/25 09:27:15;;;;;;;6.30;1.58;;;23.60;86.90;;;;;;5028819;28;20137;-77
2023/12/25 09:29:43;;;;;;;7.35;1.70;;;23.60;86.90;;;;;;5010842;28;20049;-78
2023/12/25 09:32:10;;;;;;;4.88;1.45;;;23.60;87.00;;;;;;5013975;28;20061;-82
2023/12/25 09:34:37;;;;;;;6.50;1.67;;;23.60;86.90;;;;;;5012728;28;20022;-79
2023/12/25 09:37:05;;;;;;;5.03;1.30;;;23.60;87.20;;;;;;5012642;28;20362;-76
2023/12/25 09:39:32;;;;;;;8.52;1.60;;;23.60;87.10;;;;;;5014953;28;20053;-85
2023/12/25 09:42:00;;;;;;;7.25;1.40;;;23.60;87.30;;;;;;5022613;28;20670;-76
2023/12/25 09:44:28;;;;;;;6.82;2.30;;;23.60;87.20;;;;;;5012254;28;20540;-76
2023/12/25 09:46:57;;;;;;;8.68;1.67;;;23.70;87.50;;;;;;5012642;28;20108;-79
2023/12/25 09:49:26;;;;;;;5.22;1.35;;;23.70;87.20;;;;;;5028254;28;20076;-80
2023/12/25 09:51:56;;;;;;;4.57;1.40;;;23.60;87.40;;;;;;5019597;28;20049;-81
2023/12/25 09:54:23;;;;;;;9.48;1.80;;;23.60;87.50;;;;;;5003971;28;20026;-77
2023/12/25 09:56:52;;;;;;;5.70;1.63;;;23.70;87.60;;;;;;5027901;28;20033;-83
2023/12/25 09:59:20;;;;;;;7.10;1.80;;;23.70;87.70;;;;;;5034596;28;20036;-77
2023/12/25 10:01:49;;;;;;;5.03;1.60;;;23.70;87.80;;;;;;5016550;28;20515;-81
2023/12/25 10:04:17;;;;;;;12.45;1.83;;;23.70;87.60;;;;;;5028659;28;20087;-76
2023/12/25 10:06:44;;;;;;;11.57;2.20;;;23.70;87.50;;;;;;5012286;28;20045;-83
2023/12/25 10:09:12;;;;;;;6.82;1.60;;;23.70;87.60;;;;;;5019619;28;20045;-76
2023/12/25 10:11:39;;;;;;;7.43;1.75;;;23.70;87.50;;;;;;5026239;28;20037;-78
2023/12/25 10:14:07;;;;;;;8.65;1.83;;;23.70;87.60;;;;;;5006317;28;20509;-79
2023/12/25 10:16:35;;;;;;;10.30;1.95;;;23.70;87.50;;;;;;5020128;28;20030;-77
2023/12/25 10:19:03;;;;;;;12.18;2.22;;;23.70;87.60;;;;;;5019526;28;20116;-87
2023/12/25 10:21:52;;;;;;;9.80;1.83;;;23.70;87.60;;;;;;5013243;28;20038;-83
2023/12/25 10:24:24;;;;;;;10.15;1.90;;;23.70;87.70;;;;;;5012579;28;20045;-78
2023/12/25 10:26:52;;;;;;;12.93;2.08;;;23.70;87.60;;;;;;5016181;28;20034;-78
2023/12/25 10:29:19;;;;;;;9.43;1.60;;;23.70;87.70;;;;;;5013897;28;20022;-77
2023/12/25 10:31:47;;;;;;;9.27;1.90;;;23.70;87.70;;;;;;5011686;28;20030;-78
2023/12/25 10:34:19;;;;;;;10.10;2.05;;;23.70;87.40;;;;;;5021302;28;20029;-77
2023/12/25 10:37:08;;;;;;;10.23;1.83;;;23.70;87.30;;;;;;5021792;28;20196;-79
2023/12/25 10:39:43;;;;;;;7.55;1.67;;;23.70;87.80;;;;;;5018033;28;20121;-83
2023/12/25 10:42:14;;;;;;;12.93;1.88;;;23.80;87.70;;;;;;5009166;28;20096;-80
2023/12/25 10:44:47;;;;;;;9.02;1.85;;;23.80;87.40;;;;;;5025792;28;20033;-79
2023/12/25 10:47:16;;;;;;;9.98;2.20;;;23.80;87.30;;;;;;5033014;28;20036;-79
2023/12/25 10:49:45;;;;;;;11.30;1.70;;;23.80;87.50;;;;;;5032906;28;20073;-77
2023/12/25 10:52:12;;;;;;;15.95;1.88;;;23.80;87.70;;;;;;5009962;28;20026;-85
2023/12/25 10:54:48;;;;;;;17.75;2.95;;;23.90;87.50;;;;;;5021332;28;20021;-76
2023/12/25 10:57:18;;;;;;;11.52;1.80;;;23.90;87.50;;;;;;5020405;28;20025;-77
2023/12/25 10:59:46;;;;;;;8.95;2.05;;;23.80;87.60;;;;;;5027443;28;20488;-78
2023/12/25 11:02:16;;;;;;;13.32;2.15;;;23.80;87.60;;;;;;5004727;28;20044;-76
2023/12/25 11:04:50;;;;;;;9.98;2.00;;;23.90;87.70;;;;;;5011889;28;20032;-85
2023/12/25 11:07:19;;;;;;;10.23;2.17;;;23.80;87.70;;;;;;5012547;28;20045;-78
2023/12/25 11:09:48;;;;;;;10.10;1.70;;;23.80;87.70;;;;;;5027915;28;20022;-76
2023/12/25 11:12:21;;;;;;;10.43;2.17;;;23.80;87.60;;;;;;5013597;28;20022;-80
2023/12/25 11:14:49;;;;;;;11.35;2.95;;;23.80;87.70;;;;;;5013493;28;20042;-83
2023/12/25 11:17:20;;;;;;;12.00;2.05;;;23.90;87.70;;;;;;5006421;28;20038;-82
2023/12/25 11:19:51;;;;;;;9.30;1.67;;;23.90;87.70;;;;;;5010643;28;20065;-79
2023/12/25 11:22:36;;;;;;;7.05;2.05;;;23.80;87.40;;;;;;5020252;28;20358;-77
2023/12/25 11:25:04;;;;;;;12.50;2.40;;;23.80;87.50;;;;;;5028208;28;20514;-81
2023/12/25 11:27:34;;;;;;;10.40;1.90;;;23.80;87.30;;;;;;5012129;28;20034;-81
2023/12/25 11:30:08;;;;;;;11.18;2.00;;;23.70;87.30;;;;;;5025566;28;20029;-79
2023/12/25 11:32:45;;;;;;;10.70;2.92;;;23.70;87.30;;;;;;5020966;28;20036;-81
2023/12/25 11:35:14;;;;;;;12.10;2.10;;;23.70;87.20;;;;;;5024044;28;20049;-78
2023/12/25 11:37:41;;;;;;;6.65;1.80;;;23.70;87.20;;;;;;5025768;28;20481;-79
2023/12/25 11:40:10;;;;;;;7.00;1.60;;;23.70;86.70;;;;;;5014192;28;20083;-76
2023/12/25 11:42:38;;;;;;;8.15;1.85;;;23.70;86.30;;;;;;5014997;28;20038;-79
2023/12/25 11:45:11;;;;;;;7.72;1.58;;;23.60;86.60;;;;;;5007050;28;20221;-80
2023/12/25 11:47:49;;;;;;;8.15;1.42;;;23.60;86.30;;;;;;4998337;28;20026;-75
2023/12/25 11:50:20;;;;;;;8.05;1.42;;;23.60;86.30;;;;;;5007489;28;20476;-76
2023/12/25 11:52:54;;;;;;;8.68;1.40;;;23.60;86.30;;;;;;5021922;28;20068;-86
2023/12/25 11:55:24;;;;;;;12.30;1.77;;;23.60;86.30;;;;;;5013221;28;20499;-77
2023/12/25 11:57:52;;;;;;;6.85;1.38;;;23.60;86.20;;;;;;5015782;28;20046;-76
2023/12/25 12:00:22;;;;;;;9.07;1.80;;;23.60;86.30;;;;;;5014752;28;20033;-77
2023/12/25 12:02:50;;;;;;;14.55;2.60;;;23.50;86.50;;;;;;5002003;28;20117;-77
2023/12/25 12:05:18;;;;;;;7.90;2.15;;;23.50;86.50;;;;;;5009077;28;20077;-80
2023/12/25 12:07:46;;;;;;;5.38;1.70;;;23.50;86.60;;;;;;5014091;28;20040;-78
2023/12/25 12:10:15;;;;;;;5.70;1.60;;;23.50;86.50;;;;;;5028433;28;20103;-81
2023/12/25 12:12:43;;;;;;;7.60;1.90;;;23.50;86.60;;;;;;5018487;28;20113;-83
2023/12/25 12:15:11;;;;;;;7.80;1.67;;;23.40;86.70;;;;;;5018399;28;20032;-76
2023/12/25 12:17:41;;;;;;;7.00;1.75;;;23.50;86.70;;;;;;4997379;28;20176;-77
2023/12/25 12:20:13;;;;;;;7.68;1.65;;;23.40;86.70;;;;;;5013976;28;20014;-78
2023/12/25 12:22:40;;;;;;;7.43;1.88;;;23.40;86.70;;;;;;4994343;28;20100;-76
2023/12/25 12:25:18;;;;;;;11.18;2.70;;;23.40;86.70;;;;;;5013618;28;20021;-82
2023/12/25 12:27:47;;;;;;;11.00;4.07;;;23.40;86.80;;;;;;5014366;28;20041;-77
2023/12/25 12:30:16;;;;;;;9.25;4.13;;;23.30;86.80;;;;;;5028493;28;20018;-81
2023/12/25 12:32:47;;;;;;;6.60;3.33;;;23.30;86.70;;;;;;5004979;28;20113;-75
2023/12/25 12:35:15;;;;;;;4.75;1.85;;;23.30;86.60;;;;;;5011292;28;20377;-82
2023/12/25 12:37:43;;;;;;;9.32;1.98;;;23.30;86.50;;;;;;5006296;28;20037;-78
2023/12/25 12:40:13;;;;;;;7.20;2.08;;;23.30;86.70;;;;;;5012396;28;20141;-78
2023/12/25 12:42:41;;;;;;;6.28;2.05;;;23.30;86.50;;;;;;5030249;28;20124;-77
2023/12/25 12:45:19;;;;;;;9.40;1.95;;;23.30;86.50;;;;;;5018326;28;20104;-79
2023/12/25 12:47:50;;;;;;;7.70;1.67;;;23.30;86.70;;;;;;5026059;28;20018;-81
2023/12/25 12:50:27;;;;;;;12.45;2.00;;;23.30;86.70;;;;;;5019001;28;20489;-76
2023/12/25 12:52:54;;;;;;;6.28;1.75;;;23.20;86.70;;;;;;5009288;28;20041;-79